• Join FlightAware (Why Join?)
  • Login
  • US Flag 
Rudolph Flight #1: Arrived! 
12:19AM EST


 

Airport Tracker/Info


-or-


 

Live Flight TrackerFlight Track Log ✈ SWA3321 ✈ 12-Apr-2013 ✈ KMHT - KMDW

Flight Track Log - Related Links

Times and Time Zones

All times are in EDT time to prevent confusion due to time zone crossing. See the SWA3321 flight status page for this flight to view local times or setup timezone preferences in your user account.

Time Position Orientation Groundspeed Altitude Reporting Facility
EDT Latitude Longitude Course Direction KTS MPH feet Rate Location/Type
06:24AM 42.9500 -71.4333 17° North 152 175 1,000  Level KA90
06:25AM 43.0147 -71.4064 17° North 238 274 3,900 2,340 Climbing Boston Center
06:26AM 43.0508 -71.4825 303° West 232 267 6,900 3,180 Climbing Boston Center
06:27AM 43.0911 -71.5786 300° West 253 291 10,900 3,600 Climbing Boston Center
06:28AM 43.1214 -71.7147 287° West 307 353 14,400 2,880 Climbing Boston Center
06:29AM 43.1239 -71.8256 272° West 319 367 16,700 2,280 Climbing Boston Center
06:30AM 43.1267 -71.9450 272° West 341 392 18,900 2,340 Climbing Boston Center
06:31AM 43.1336 -72.0986 274° West 357 411 21,500 2,160 Climbing Boston Center
06:32AM 43.1317 -72.2439 269° West 376 433 23,300 1,620 Climbing Boston Center
06:33AM 43.1319 -72.3947 270° West 386 444 24,900 1,320 Climbing Boston Center
06:34AM 43.1256 -72.5567 267° West 412 474 26,000 1,320 Climbing Boston Center
06:35AM 43.1128 -72.7303 264° West 419 482 27,600 1,500 Climbing Boston Center
06:36AM 43.1081 -72.8867 268° West 424 488 29,100 1,200 Climbing Boston Center
06:37AM 43.1075 -73.0344 270° West 424 488 30,000 420 Climbing Boston Center
06:38AM 43.1003 -73.1908 266° West 424 488 30,000 840 Level Boston Center
06:39AM 43.0950 -73.3442 267° West 419 482 31,800 1,500 Climbing Boston Center
06:40AM 43.0831 -73.5061 264° West 413 475 33,000 1,200 Climbing Boston Center
06:41AM 43.0775 -73.6539 267° West 401 461 34,200 1,440 Climbing Boston Center
06:42AM 43.0717 -73.8014 267° West 396 456 36,000 1,680 Climbing Boston Center
06:43AM 43.0678 -73.9436 268° West 390 449 37,600 960 Climbing Boston Center
06:44AM 43.0597 -74.0797 265° West 379 436 38,000 180 Climbing Boston Center
06:45AM 43.0533 -74.2189 266° West 374 430 38,000  Level Boston Center
06:46AM 43.0492 -74.3581 268° West 369 425 38,000  Level Boston Center
06:47AM 43.0406 -74.4942 265° West 369 425 38,000  Level Boston Center
06:48AM 43.0358 -74.6331 267° West 364 419 38,000  Level Boston Center
06:49AM 43.0264 -74.7975 266° West 369 425 38,000  Level Boston Center
06:50AM 43.0214 -74.9336 267° West 364 419 38,000  Level Boston Center
06:51AM 43.0119 -75.0694 265° West 364 419 38,000  Level Boston Center
06:52AM 43.0067 -75.2056 267° West 364 419 38,000  Level Boston Center
06:54AM 42.9983 -75.3672 266° West 364 419 38,000  Level Boston Center
06:54AM 42.9908 -75.5003 266° West 364 419 38,000  Level Boston Center
06:56AM 42.9800 -75.6672 265° West 364 419 38,000  Level Boston Center
06:57AM 42.9739 -75.8003 266° West 364 419 38,000  Level Boston Center
06:58AM 42.9656 -75.9389 265° West 364 419 38,000  Level Boston Center
06:59AM 42.9572 -76.0775 265° West 364 419 38,000  Level Boston Center
07:00AM 42.9431 -76.2831 265° West 368 423 38,000  Level Cleveland Center
07:01AM 42.9336 -76.4228 265° West 368 423 38,000  Level Cleveland Center
07:02AM 42.9239 -76.5653 265° West 373 429 38,000  Level Cleveland Center
07:03AM 42.9142 -76.7047 265° West 373 429 38,000  Level Cleveland Center
07:04AM 42.9061 -76.8414 265° West 368 423 38,000  Level Cleveland Center
07:05AM 42.8961 -76.9836 265° West 373 429 38,000  Level Cleveland Center
07:06AM 42.8686 -77.1100 254° West 368 423 38,000  Level Cleveland Center
07:07AM 42.8306 -77.2311 247° West 357 411 38,000  Level Cleveland Center
07:08AM 42.7922 -77.3519 247° West 357 411 38,000  Level Cleveland Center
07:09AM 42.7519 -77.4728 246° West 352 405 38,000  Level Cleveland Center
07:10AM 42.7092 -77.5964 245° Southwest 352 405 38,000  Level Cleveland Center
07:11AM 42.6706 -77.7169 246° West 357 411 38,000  Level Cleveland Center
07:12AM 42.6319 -77.8372 246° West 357 411 38,000  Level Cleveland Center
07:13AM 42.5850 -77.9717 245° Southwest 363 418 38,000  Level Cleveland Center
07:14AM 42.5439 -78.0975 246° West 363 418 38,000  Level Cleveland Center
07:15AM 42.5028 -78.2175 245° Southwest 363 418 38,000  Level Cleveland Center
07:16AM 42.4592 -78.3400 244° Southwest 363 418 38,000  Level Cleveland Center
07:17AM 42.4178 -78.4653 246° West 363 418 38,000  Level Cleveland Center
07:18AM 42.3764 -78.5875 245° Southwest 363 418 38,000  Level Cleveland Center
07:19AM 42.3344 -78.7069 245° Southwest 363 418 38,000  Level Cleveland Center
07:20AM 42.2928 -78.8317 246° West 363 418 38,000  Level Cleveland Center
07:21AM 42.2547 -78.9392 244° Southwest 363 418 38,000  Level Cleveland Center
07:22AM 42.2106 -79.0608 244° Southwest 363 418 38,000  Level Cleveland Center
07:23AM 42.1725 -79.1853 248° West 363 418 38,000  Level Cleveland Center
07:24AM 42.1406 -79.3147 252° West 363 418 38,000  Level Cleveland Center
07:25AM 42.1211 -79.4550 259° West 368 423 38,000  Level Cleveland Center
07:26AM 42.1058 -79.5953 262° West 379 436 38,000  Level Cleveland Center
07:27AM 42.0883 -79.7383 261° West 384 442 38,000  Level Cleveland Center
07:28AM 42.0683 -79.8811 259° West 390 449 38,000  Level Cleveland Center
07:29AM 42.0525 -80.0183 261° West 390 449 38,000  Level Cleveland Center
07:30AM 42.0342 -80.1667 261° West 395 455 38,000  Level Cleveland Center
07:31AM 42.0139 -80.3206 260° West 388 447 38,000  Level Cleveland Center
07:32AM 41.9953 -80.4686 260° West 394 453 38,000  Level Cleveland Center
07:33AM 41.9767 -80.6111 260° West 394 453 38,000  Level Cleveland Center
07:34AM 41.9597 -80.7564 261° West 394 453 38,000  Level Cleveland Center
07:35AM 41.9386 -80.8986 259° West 394 453 38,000  Level Cleveland Center
07:36AM 41.9194 -81.0464 260° West 394 453 38,000  Level Cleveland Center
07:37AM 41.9000 -81.1914 260° West 394 453 38,000  Level Cleveland Center
07:38AM 41.8803 -81.3389 260° West 394 453 38,000  Level Cleveland Center
07:39AM 41.8625 -81.4836 261° West 394 453 38,000  Level Cleveland Center
07:40AM 41.8406 -81.6339 259° West 400 460 38,000  Level Cleveland Center
07:41AM 41.8183 -81.7783 258° West 405 466 38,000  Level Cleveland Center
07:42AM 41.8000 -81.9283 261° West 411 473 38,000  Level Cleveland Center
07:43AM 41.7772 -82.0811 259° West 416 479 38,000  Level Cleveland Center
07:44AM 41.7542 -82.2308 258° West 416 479 38,000  Level Cleveland Center
07:45AM 41.7311 -82.3833 259° West 416 479 38,000  Level Cleveland Center
07:46AM 41.7078 -82.5356 258° West 416 479 38,000  Level Cleveland Center
07:47AM 41.6864 -82.6853 259° West 416 479 38,000  Level Cleveland Center
07:48AM 41.6647 -82.8344 259° West 411 473 38,000  Level Cleveland Center
07:49AM 41.6411 -82.9783 258° West 411 473 38,000  Level Cleveland Center
07:50AM 41.6214 -83.1136 259° West 411 473 38,000  Level Cleveland Center
07:51AM 41.5969 -83.2711 258° West 405 466 38,000  Level Cleveland Center
07:52AM 41.5744 -83.4200 259° West 410 472 38,000  Level Cleveland Center
07:53AM 41.5500 -83.5686 258° West 410 472 38,000  Level Cleveland Center
07:54AM 41.5272 -83.7203 259° West 410 472 38,000  Level Cleveland Center
07:55AM 41.5044 -83.8633 258° West 410 472 38,000  Level Cleveland Center
07:56AM 41.4811 -84.0119 258° West 410 472 38,000 -960 Level Cleveland Center
07:58AM 41.4667 -84.2975 266° West 408 470 35,100 -1,680 Descending Chicago Center
07:59AM 41.4742 -84.4486 274° West 409 471 32,800 -2,220 Descending Chicago Center
08:00AM 41.4786 -84.5947 272° West 396 456 30,600 -1,380 Descending Chicago Center
08:01AM 41.4853 -84.7656 273° West 385 443 30,000 -300 Descending Chicago Center
08:02AM 41.4906 -84.9122 273° West 395 455 30,000  Level Chicago Center
08:03AM 41.4961 -85.0614 273° West 401 461 30,000 -300 Level Chicago Center
08:04AM 41.5006 -85.2097 272° West 399 459 29,400 -1,860 Descending Chicago Center
08:05AM 41.5050 -85.3664 272° West 413 475 26,200 -2,640 Descending Chicago Center
08:07AM 41.5103 -85.5217 273° West 406 467 24,000 -1,080 Descending Chicago Center
08:08AM 41.5142 -85.6717 272° West 400 460 24,000 -1,260 Level Chicago Center
08:09AM 41.5192 -85.8167 273° West 392 451 21,500 -2,460 Descending Chicago Center
08:10AM 41.5222 -85.9550 272° West 376 433 19,000 -2,520 Descending Chicago Center
08:11AM 41.5247 -86.0900 271° West 366 421 16,400 -2,520 Descending Chicago Center
08:12AM 41.5242 -86.2253 270° West 366 421 13,900 -2,400 Descending Chicago Center
08:13AM 41.5236 -86.3583 270° West 362 417 11,500 -1,680 Descending Chicago Center
08:14AM 41.5208 -86.5064 269° West 337 388 10,500 -780 Descending Chicago Center
08:15AM 41.5208 -86.6219 270° West 316 364 10,000 -540 Descending Chicago Center
08:16AM 41.5197 -86.7339 269° West 294 338 9,400 -1,020 Descending Chicago Center
08:17AM 41.5197 -86.8303 270° West 264 304 8,000 -1,380 Descending Chicago Center
08:18AM 41.5167 -86.9281 268° West 266 306 6,600 -1,020 Descending Chicago Center
08:19AM 41.5172 -87.0228 270° West 259 298 6,000 -300 Descending Chicago Center
08:20AM 41.5358 -87.1097 286° West 249 287 6,000 -360 Level Chicago Center
08:20AM 41.5500 -87.1667 288° West 248 285 5,500 -1,380 Descending Chicago TRACON
08:21AM 41.5667 -87.2500 285° West 247 284 4,100 -780 Descending Chicago TRACON
08:22AM 41.6000 -87.3333 298° West 239 275 4,000 -120 Descending Chicago TRACON
08:23AM 41.6103 -87.3822 286° West 245 282 4,000  Level Chicago Center
08:24AM 41.6325 -87.4642 290° West 241 277 4,000  Level Chicago Center
08:25AM 41.6539 -87.5478 289° West 240 276 4,000 -300 Level Chicago Center
08:26AM 41.6858 -87.6139 303° West 225 259 3,400 -780 Descending Chicago Center
08:26AM 41.7000 -87.6333 314° West 192 221 3,000 -1,020 Descending Chicago TRACON
08:27AM 41.7333 -87.6833 312° West 145 167 2,100 -900 Descending Chicago TRACON
08:28AM 41.7500 -87.7167 304° West 130 150 1,300 -840 Descending Chicago TRACON
08:31AM 41.7833 -87.7500 334° Northwest  Level FlightAware Approximate